<?xml version="1.0" encoding="UTF-8" standalone="no" ?>
<gpx xmlns="http://www.topografix.com/GPX/1/1" xmlns:xsi="http://www.w3.org/2001/XMLSchema-instance" xsi:schemaLocation="http://www.topografix.com/GPX/1/1 http://www.topografix.com/GPX/1/1/gpx.xsd" version="1.1" creator="VisuGPX - https://www.visugpx.com">
  <metadata>
    <name>A petit parcours sablière</name>
    <desc><![CDATA[Parcours à modifier]]></desc>
  </metadata>
  <trk>
    <name><![CDATA[2022-01-04 09:09]]></name>
    <desc><![CDATA[<p>Heure de départ: 09:09 4 janv. 2022<br/>Heure d'arrivée: 11:40 4 janv. 2022<br/>Distance: 8,6 km (02:31)<br/>Temps déplacement: 01:30<br/>Vitesse moyenne: 3,39 km/h<br/>Vitesse moyenne mouv.: 5,71 km/h<br/>Vitesse Max.: 7,86 km/h<br/>Altitude minimale: 60 m<br/>Altitude maximale: 159 m<br/>Vitesse de montée: 250,7 m/h<br/>Vitesse de descente: -207,4 m/h<br/>Gain d'altitude: 302 m<br/>Perte d'altitude: -273 m<br/>Temps de montée: 01:12<br/>Temps de descente: 01:19<br/></p><hr align="center" width="480" style="height: 2px; width: 517px"/>]]></desc>
    <trkseg>
      <trkpt lat="48.69303" lon="1.90805">
        <ele>60.53</ele>
        <time>2022-01-04T08:09:04Z</time>
      </trkpt>
      <trkpt lat="48.69289" lon="1.90829">
        <ele>90.35</ele>
        <time>2022-01-04T08:17:46Z</time>
      </trkpt>
      <trkpt lat="48.6931" lon="1.90807">
        <ele>97.77</ele>
        <time>2022-01-04T08:23:40Z</time>
      </trkpt>
      <trkpt lat="48.69313" lon="1.9078">
        <ele>100.97</ele>
        <time>2022-01-04T08:24:07Z</time>
      </trkpt>
      <trkpt lat="48.69328" lon="1.90762">
        <ele>100.55</ele>
        <time>2022-01-04T08:24:24Z</time>
      </trkpt>
      <trkpt lat="48.69342" lon="1.90744">
        <ele>103.26</ele>
        <time>2022-01-04T08:24:43Z</time>
      </trkpt>
      <trkpt lat="48.6936" lon="1.90739">
        <ele>105.43</ele>
        <time>2022-01-04T08:25:01Z</time>
      </trkpt>
      <trkpt lat="48.69376" lon="1.90725">
        <ele>106.26</ele>
        <time>2022-01-04T08:25:16Z</time>
      </trkpt>
      <trkpt lat="48.69392" lon="1.9071">
        <ele>106.78</ele>
        <time>2022-01-04T08:25:33Z</time>
      </trkpt>
      <trkpt lat="48.69411" lon="1.90705">
        <ele>107.99</ele>
        <time>2022-01-04T08:25:54Z</time>
      </trkpt>
      <trkpt lat="48.69428" lon="1.90695">
        <ele>108.05</ele>
        <time>2022-01-04T08:26:06Z</time>
      </trkpt>
      <trkpt lat="48.69444" lon="1.90682">
        <ele>108.9</ele>
        <time>2022-01-04T08:26:18Z</time>
      </trkpt>
      <trkpt lat="48.69457" lon="1.9066">
        <ele>108.61</ele>
        <time>2022-01-04T08:26:31Z</time>
      </trkpt>
      <trkpt lat="48.69465" lon="1.90634">
        <ele>108.73</ele>
        <time>2022-01-04T08:26:48Z</time>
      </trkpt>
      <trkpt lat="48.6948" lon="1.90616">
        <ele>109.28</ele>
        <time>2022-01-04T08:27:04Z</time>
      </trkpt>
      <trkpt lat="48.69489" lon="1.90592">
        <ele>109.31</ele>
        <time>2022-01-04T08:27:20Z</time>
      </trkpt>
      <trkpt lat="48.69473" lon="1.90604">
        <ele>99.55</ele>
        <time>2022-01-04T08:27:46Z</time>
      </trkpt>
      <trkpt lat="48.69459" lon="1.90624">
        <ele>97.28</ele>
        <time>2022-01-04T08:28:01Z</time>
      </trkpt>
      <trkpt lat="48.69452" lon="1.9065">
        <ele>95.51</ele>
        <time>2022-01-04T08:28:15Z</time>
      </trkpt>
      <trkpt lat="48.69446" lon="1.90676">
        <ele>93.68</ele>
        <time>2022-01-04T08:28:28Z</time>
      </trkpt>
      <trkpt lat="48.69427" lon="1.90672">
        <ele>91.41</ele>
        <time>2022-01-04T08:28:46Z</time>
      </trkpt>
      <trkpt lat="48.69409" lon="1.90661">
        <ele>89.48</ele>
        <time>2022-01-04T08:29:01Z</time>
      </trkpt>
      <trkpt lat="48.69409" lon="1.90634">
        <ele>87.52</ele>
        <time>2022-01-04T08:29:22Z</time>
      </trkpt>
      <trkpt lat="48.69397" lon="1.90613">
        <ele>90.79</ele>
        <time>2022-01-04T08:29:43Z</time>
      </trkpt>
      <trkpt lat="48.69378" lon="1.90602">
        <ele>93.8</ele>
        <time>2022-01-04T08:29:57Z</time>
      </trkpt>
      <trkpt lat="48.69373" lon="1.90575">
        <ele>97.16</ele>
        <time>2022-01-04T08:30:16Z</time>
      </trkpt>
      <trkpt lat="48.69369" lon="1.90547">
        <ele>101.8</ele>
        <time>2022-01-04T08:30:34Z</time>
      </trkpt>
      <trkpt lat="48.69362" lon="1.90521">
        <ele>105.59</ele>
        <time>2022-01-04T08:30:48Z</time>
      </trkpt>
      <trkpt lat="48.69359" lon="1.9049">
        <ele>109.24</ele>
        <time>2022-01-04T08:31:02Z</time>
      </trkpt>
      <trkpt lat="48.69359" lon="1.90462">
        <ele>110.45</ele>
        <time>2022-01-04T08:31:15Z</time>
      </trkpt>
      <trkpt lat="48.69351" lon="1.90435">
        <ele>114.34</ele>
        <time>2022-01-04T08:31:36Z</time>
      </trkpt>
      <trkpt lat="48.69345" lon="1.90409">
        <ele>114.93</ele>
        <time>2022-01-04T08:31:51Z</time>
      </trkpt>
      <trkpt lat="48.69337" lon="1.90385">
        <ele>115.89</ele>
        <time>2022-01-04T08:32:10Z</time>
      </trkpt>
      <trkpt lat="48.69322" lon="1.90371">
        <ele>116.86</ele>
        <time>2022-01-04T08:32:22Z</time>
      </trkpt>
      <trkpt lat="48.69312" lon="1.90348">
        <ele>117.33</ele>
        <time>2022-01-04T08:32:36Z</time>
      </trkpt>
      <trkpt lat="48.69306" lon="1.90321">
        <ele>118.79</ele>
        <time>2022-01-04T08:32:52Z</time>
      </trkpt>
      <trkpt lat="48.69297" lon="1.90296">
        <ele>121.68</ele>
        <time>2022-01-04T08:33:08Z</time>
      </trkpt>
      <trkpt lat="48.69278" lon="1.90285">
        <ele>122.17</ele>
        <time>2022-01-04T08:33:47Z</time>
      </trkpt>
      <trkpt lat="48.69295" lon="1.90295">
        <ele>120.16</ele>
        <time>2022-01-04T08:34:15Z</time>
      </trkpt>
      <trkpt lat="48.69313" lon="1.90292">
        <ele>117.72</ele>
        <time>2022-01-04T08:34:36Z</time>
      </trkpt>
      <trkpt lat="48.69331" lon="1.9028">
        <ele>118.07</ele>
        <time>2022-01-04T08:34:57Z</time>
      </trkpt>
      <trkpt lat="48.69348" lon="1.90271">
        <ele>113.64</ele>
        <time>2022-01-04T08:35:24Z</time>
      </trkpt>
      <trkpt lat="48.69363" lon="1.90286">
        <ele>108.72</ele>
        <time>2022-01-04T08:35:47Z</time>
      </trkpt>
      <trkpt lat="48.69379" lon="1.90269">
        <ele>102.01</ele>
        <time>2022-01-04T08:36:37Z</time>
      </trkpt>
      <trkpt lat="48.69394" lon="1.90253">
        <ele>98.77</ele>
        <time>2022-01-04T08:36:58Z</time>
      </trkpt>
      <trkpt lat="48.69412" lon="1.90258">
        <ele>97.74</ele>
        <time>2022-01-04T08:37:27Z</time>
      </trkpt>
      <trkpt lat="48.69429" lon="1.90245">
        <ele>97.65</ele>
        <time>2022-01-04T08:37:51Z</time>
      </trkpt>
      <trkpt lat="48.69446" lon="1.90256">
        <ele>101.51</ele>
        <time>2022-01-04T08:38:12Z</time>
      </trkpt>
      <trkpt lat="48.69463" lon="1.9027">
        <ele>102.93</ele>
        <time>2022-01-04T08:38:28Z</time>
      </trkpt>
      <trkpt lat="48.69477" lon="1.90288">
        <ele>101.23</ele>
        <time>2022-01-04T08:38:43Z</time>
      </trkpt>
      <trkpt lat="48.69493" lon="1.90303">
        <ele>99.07</ele>
        <time>2022-01-04T08:39:09Z</time>
      </trkpt>
      <trkpt lat="48.69508" lon="1.90317">
        <ele>95.78</ele>
        <time>2022-01-04T08:39:28Z</time>
      </trkpt>
      <trkpt lat="48.69526" lon="1.90306">
        <ele>93.88</ele>
        <time>2022-01-04T08:39:41Z</time>
      </trkpt>
      <trkpt lat="48.69542" lon="1.9032">
        <ele>93.73</ele>
        <time>2022-01-04T08:40:22Z</time>
      </trkpt>
      <trkpt lat="48.69556" lon="1.90343">
        <ele>93.33</ele>
        <time>2022-01-04T08:41:07Z</time>
      </trkpt>
      <trkpt lat="48.69573" lon="1.9033">
        <ele>97.14</ele>
        <time>2022-01-04T08:41:33Z</time>
      </trkpt>
      <trkpt lat="48.6958" lon="1.90303">
        <ele>100.56</ele>
        <time>2022-01-04T08:41:52Z</time>
      </trkpt>
      <trkpt lat="48.69586" lon="1.90276">
        <ele>104.28</ele>
        <time>2022-01-04T08:42:10Z</time>
      </trkpt>
      <trkpt lat="48.69596" lon="1.90253">
        <ele>106.94</ele>
        <time>2022-01-04T08:42:26Z</time>
      </trkpt>
      <trkpt lat="48.69601" lon="1.90225">
        <ele>111.03</ele>
        <time>2022-01-04T08:42:38Z</time>
      </trkpt>
      <trkpt lat="48.69604" lon="1.90196">
        <ele>116.35</ele>
        <time>2022-01-04T08:42:54Z</time>
      </trkpt>
      <trkpt lat="48.69601" lon="1.90169">
        <ele>121.71</ele>
        <time>2022-01-04T08:43:09Z</time>
      </trkpt>
      <trkpt lat="48.69596" lon="1.90142">
        <ele>124.2</ele>
        <time>2022-01-04T08:43:33Z</time>
      </trkpt>
      <trkpt lat="48.69595" lon="1.90113">
        <ele>125.09</ele>
        <time>2022-01-04T08:43:51Z</time>
      </trkpt>
      <trkpt lat="48.69587" lon="1.90088">
        <ele>126.49</ele>
        <time>2022-01-04T08:44:10Z</time>
      </trkpt>
      <trkpt lat="48.69579" lon="1.90064">
        <ele>127.27</ele>
        <time>2022-01-04T08:44:22Z</time>
      </trkpt>
      <trkpt lat="48.69569" lon="1.90038">
        <ele>126.5</ele>
        <time>2022-01-04T08:44:35Z</time>
      </trkpt>
      <trkpt lat="48.69561" lon="1.90012">
        <ele>128.41</ele>
        <time>2022-01-04T08:44:55Z</time>
      </trkpt>
      <trkpt lat="48.69552" lon="1.89986">
        <ele>128.1</ele>
        <time>2022-01-04T08:45:08Z</time>
      </trkpt>
      <trkpt lat="48.69544" lon="1.89959">
        <ele>129.27</ele>
        <time>2022-01-04T08:45:25Z</time>
      </trkpt>
      <trkpt lat="48.69534" lon="1.89935">
        <ele>131.29</ele>
        <time>2022-01-04T08:45:44Z</time>
      </trkpt>
      <trkpt lat="48.69524" lon="1.8991">
        <ele>133.03</ele>
        <time>2022-01-04T08:45:59Z</time>
      </trkpt>
      <trkpt lat="48.69524" lon="1.89878">
        <ele>134.9</ele>
        <time>2022-01-04T08:46:10Z</time>
      </trkpt>
      <trkpt lat="48.69514" lon="1.89855">
        <ele>135.94</ele>
        <time>2022-01-04T08:46:24Z</time>
      </trkpt>
      <trkpt lat="48.69507" lon="1.8983">
        <ele>135.53</ele>
        <time>2022-01-04T08:46:38Z</time>
      </trkpt>
      <trkpt lat="48.69497" lon="1.89807">
        <ele>135.5</ele>
        <time>2022-01-04T08:46:54Z</time>
      </trkpt>
      <trkpt lat="48.69487" lon="1.89783">
        <ele>134.36</ele>
        <time>2022-01-04T08:47:06Z</time>
      </trkpt>
      <trkpt lat="48.69479" lon="1.89758">
        <ele>133.34</ele>
        <time>2022-01-04T08:47:21Z</time>
      </trkpt>
      <trkpt lat="48.69486" lon="1.89732">
        <ele>130.02</ele>
        <time>2022-01-04T08:47:45Z</time>
      </trkpt>
      <trkpt lat="48.69505" lon="1.89729">
        <ele>127.6</ele>
        <time>2022-01-04T08:48:02Z</time>
      </trkpt>
      <trkpt lat="48.69522" lon="1.8972">
        <ele>122.97</ele>
        <time>2022-01-04T08:48:21Z</time>
      </trkpt>
      <trkpt lat="48.69531" lon="1.89695">
        <ele>121.5</ele>
        <time>2022-01-04T08:48:46Z</time>
      </trkpt>
      <trkpt lat="48.69538" lon="1.89669">
        <ele>120.57</ele>
        <time>2022-01-04T08:49:00Z</time>
      </trkpt>
      <trkpt lat="48.69541" lon="1.89642">
        <ele>120.95</ele>
        <time>2022-01-04T08:49:20Z</time>
      </trkpt>
      <trkpt lat="48.69524" lon="1.89632">
        <ele>123.23</ele>
        <time>2022-01-04T08:49:41Z</time>
      </trkpt>
      <trkpt lat="48.69507" lon="1.89623">
        <ele>123.86</ele>
        <time>2022-01-04T08:49:55Z</time>
      </trkpt>
      <trkpt lat="48.69489" lon="1.89615">
        <ele>123.93</ele>
        <time>2022-01-04T08:50:08Z</time>
      </trkpt>
      <trkpt lat="48.69472" lon="1.89608">
        <ele>125.03</ele>
        <time>2022-01-04T08:50:21Z</time>
      </trkpt>
      <trkpt lat="48.69454" lon="1.896">
        <ele>125.42</ele>
        <time>2022-01-04T08:50:35Z</time>
      </trkpt>
      <trkpt lat="48.69436" lon="1.89591">
        <ele>124.34</ele>
        <time>2022-01-04T08:50:49Z</time>
      </trkpt>
      <trkpt lat="48.69418" lon="1.89582">
        <ele>124.11</ele>
        <time>2022-01-04T08:51:03Z</time>
      </trkpt>
      <trkpt lat="48.694" lon="1.89575">
        <ele>123.07</ele>
        <time>2022-01-04T08:51:18Z</time>
      </trkpt>
      <trkpt lat="48.69382" lon="1.89565">
        <ele>124.36</ele>
        <time>2022-01-04T08:51:35Z</time>
      </trkpt>
      <trkpt lat="48.69365" lon="1.89554">
        <ele>123.97</ele>
        <time>2022-01-04T08:51:51Z</time>
      </trkpt>
      <trkpt lat="48.69347" lon="1.89544">
        <ele>123.04</ele>
        <time>2022-01-04T08:52:05Z</time>
      </trkpt>
      <trkpt lat="48.69329" lon="1.89535">
        <ele>122.27</ele>
        <time>2022-01-04T08:52:21Z</time>
      </trkpt>
      <trkpt lat="48.69311" lon="1.89527">
        <ele>123.21</ele>
        <time>2022-01-04T08:52:35Z</time>
      </trkpt>
      <trkpt lat="48.69293" lon="1.89519">
        <ele>123.11</ele>
        <time>2022-01-04T08:52:52Z</time>
      </trkpt>
      <trkpt lat="48.69277" lon="1.89506">
        <ele>121.54</ele>
        <time>2022-01-04T08:53:09Z</time>
      </trkpt>
      <trkpt lat="48.69259" lon="1.89496">
        <ele>121.09</ele>
        <time>2022-01-04T08:53:24Z</time>
      </trkpt>
      <trkpt lat="48.69241" lon="1.89489">
        <ele>121.82</ele>
        <time>2022-01-04T08:53:36Z</time>
      </trkpt>
      <trkpt lat="48.69224" lon="1.89479">
        <ele>122.66</ele>
        <time>2022-01-04T08:53:50Z</time>
      </trkpt>
      <trkpt lat="48.69206" lon="1.89473">
        <ele>124.29</ele>
        <time>2022-01-04T08:54:04Z</time>
      </trkpt>
      <trkpt lat="48.69189" lon="1.89463">
        <ele>125.87</ele>
        <time>2022-01-04T08:54:17Z</time>
      </trkpt>
      <trkpt lat="48.69172" lon="1.89452">
        <ele>127.22</ele>
        <time>2022-01-04T08:54:31Z</time>
      </trkpt>
      <trkpt lat="48.69154" lon="1.89442">
        <ele>127.42</ele>
        <time>2022-01-04T08:54:45Z</time>
      </trkpt>
      <trkpt lat="48.69137" lon="1.89431">
        <ele>127.94</ele>
        <time>2022-01-04T08:55:00Z</time>
      </trkpt>
      <trkpt lat="48.69119" lon="1.89421">
        <ele>127.93</ele>
        <time>2022-01-04T08:55:16Z</time>
      </trkpt>
      <trkpt lat="48.69102" lon="1.89411">
        <ele>127.68</ele>
        <time>2022-01-04T08:55:31Z</time>
      </trkpt>
      <trkpt lat="48.69085" lon="1.89401">
        <ele>126.65</ele>
        <time>2022-01-04T08:55:45Z</time>
      </trkpt>
      <trkpt lat="48.69067" lon="1.89394">
        <ele>125.96</ele>
        <time>2022-01-04T08:56:00Z</time>
      </trkpt>
      <trkpt lat="48.69049" lon="1.89384">
        <ele>126.69</ele>
        <time>2022-01-04T08:56:14Z</time>
      </trkpt>
      <trkpt lat="48.69031" lon="1.89376">
        <ele>126.75</ele>
        <time>2022-01-04T08:56:26Z</time>
      </trkpt>
      <trkpt lat="48.69013" lon="1.89368">
        <ele>125.8</ele>
        <time>2022-01-04T08:56:46Z</time>
      </trkpt>
      <trkpt lat="48.68996" lon="1.89359">
        <ele>129.32</ele>
        <time>2022-01-04T08:57:06Z</time>
      </trkpt>
      <trkpt lat="48.68979" lon="1.89349">
        <ele>132.84</ele>
        <time>2022-01-04T08:57:21Z</time>
      </trkpt>
      <trkpt lat="48.68959" lon="1.89346">
        <ele>135.7</ele>
        <time>2022-01-04T08:57:36Z</time>
      </trkpt>
      <trkpt lat="48.68941" lon="1.8935">
        <ele>137.88</ele>
        <time>2022-01-04T08:57:51Z</time>
      </trkpt>
      <trkpt lat="48.68923" lon="1.89349">
        <ele>139.32</ele>
        <time>2022-01-04T08:58:05Z</time>
      </trkpt>
      <trkpt lat="48.68905" lon="1.89344">
        <ele>140.95</ele>
        <time>2022-01-04T08:58:20Z</time>
      </trkpt>
      <trkpt lat="48.68887" lon="1.89342">
        <ele>142.77</ele>
        <time>2022-01-04T08:58:39Z</time>
      </trkpt>
      <trkpt lat="48.68869" lon="1.89343">
        <ele>143.66</ele>
        <time>2022-01-04T08:58:51Z</time>
      </trkpt>
      <trkpt lat="48.6885" lon="1.89341">
        <ele>146.57</ele>
        <time>2022-01-04T08:59:07Z</time>
      </trkpt>
      <trkpt lat="48.68832" lon="1.89344">
        <ele>147.93</ele>
        <time>2022-01-04T08:59:18Z</time>
      </trkpt>
      <trkpt lat="48.68813" lon="1.89341">
        <ele>148.22</ele>
        <time>2022-01-04T08:59:31Z</time>
      </trkpt>
      <trkpt lat="48.68794" lon="1.8934">
        <ele>148.4</ele>
        <time>2022-01-04T08:59:49Z</time>
      </trkpt>
      <trkpt lat="48.68776" lon="1.89332">
        <ele>149.23</ele>
        <time>2022-01-04T09:00:04Z</time>
      </trkpt>
      <trkpt lat="48.68759" lon="1.89325">
        <ele>149.14</ele>
        <time>2022-01-04T09:00:17Z</time>
      </trkpt>
      <trkpt lat="48.6874" lon="1.89314">
        <ele>147.75</ele>
        <time>2022-01-04T09:00:28Z</time>
      </trkpt>
      <trkpt lat="48.68723" lon="1.89305">
        <ele>145.99</ele>
        <time>2022-01-04T09:00:39Z</time>
      </trkpt>
      <trkpt lat="48.68706" lon="1.89295">
        <ele>147.79</ele>
        <time>2022-01-04T09:00:56Z</time>
      </trkpt>
      <trkpt lat="48.6869" lon="1.89281">
        <ele>148.71</ele>
        <time>2022-01-04T09:01:12Z</time>
      </trkpt>
      <trkpt lat="48.68673" lon="1.89269">
        <ele>151.33</ele>
        <time>2022-01-04T09:01:27Z</time>
      </trkpt>
      <trkpt lat="48.68656" lon="1.89252">
        <ele>153.51</ele>
        <time>2022-01-04T09:01:40Z</time>
      </trkpt>
      <trkpt lat="48.68646" lon="1.89228">
        <ele>155.21</ele>
        <time>2022-01-04T09:01:54Z</time>
      </trkpt>
      <trkpt lat="48.68631" lon="1.89211">
        <ele>155.84</ele>
        <time>2022-01-04T09:02:10Z</time>
      </trkpt>
      <trkpt lat="48.68613" lon="1.89218">
        <ele>150.16</ele>
        <time>2022-01-04T09:02:34Z</time>
      </trkpt>
      <trkpt lat="48.686" lon="1.89198">
        <ele>136.37</ele>
        <time>2022-01-04T09:03:35Z</time>
      </trkpt>
      <trkpt lat="48.68598" lon="1.89226">
        <ele>140.92</ele>
        <time>2022-01-04T09:04:09Z</time>
      </trkpt>
      <trkpt lat="48.68599" lon="1.89254">
        <ele>144.11</ele>
        <time>2022-01-04T09:04:23Z</time>
      </trkpt>
      <trkpt lat="48.686" lon="1.89283">
        <ele>145.95</ele>
        <time>2022-01-04T09:04:37Z</time>
      </trkpt>
      <trkpt lat="48.68598" lon="1.89311">
        <ele>147.64</ele>
        <time>2022-01-04T09:04:48Z</time>
      </trkpt>
      <trkpt lat="48.68598" lon="1.89339">
        <ele>151.24</ele>
        <time>2022-01-04T09:05:05Z</time>
      </trkpt>
      <trkpt lat="48.686" lon="1.89368">
        <ele>154.47</ele>
        <time>2022-01-04T09:05:20Z</time>
      </trkpt>
      <trkpt lat="48.68595" lon="1.89395">
        <ele>155.2</ele>
        <time>2022-01-04T09:05:32Z</time>
      </trkpt>
      <trkpt lat="48.68593" lon="1.89425">
        <ele>156.8</ele>
        <time>2022-01-04T09:05:45Z</time>
      </trkpt>
      <trkpt lat="48.68596" lon="1.89452">
        <ele>158.09</ele>
        <time>2022-01-04T09:05:58Z</time>
      </trkpt>
      <trkpt lat="48.68597" lon="1.89482">
        <ele>159.29</ele>
        <time>2022-01-04T09:06:11Z</time>
      </trkpt>
      <trkpt lat="48.68599" lon="1.8951">
        <ele>159.42</ele>
        <time>2022-01-04T09:06:24Z</time>
      </trkpt>
      <trkpt lat="48.68595" lon="1.89538">
        <ele>157.85</ele>
        <time>2022-01-04T09:06:36Z</time>
      </trkpt>
      <trkpt lat="48.68592" lon="1.89565">
        <ele>155.05</ele>
        <time>2022-01-04T09:06:48Z</time>
      </trkpt>
      <trkpt lat="48.68597" lon="1.89593">
        <ele>155.8</ele>
        <time>2022-01-04T09:07:04Z</time>
      </trkpt>
      <trkpt lat="48.68598" lon="1.89621">
        <ele>156</ele>
        <time>2022-01-04T09:07:19Z</time>
      </trkpt>
      <trkpt lat="48.68599" lon="1.89653">
        <ele>154.7</ele>
        <time>2022-01-04T09:07:42Z</time>
      </trkpt>
      <trkpt lat="48.686" lon="1.89682">
        <ele>150.57</ele>
        <time>2022-01-04T09:08:15Z</time>
      </trkpt>
      <trkpt lat="48.686" lon="1.89711">
        <ele>152.92</ele>
        <time>2022-01-04T09:08:34Z</time>
      </trkpt>
      <trkpt lat="48.68598" lon="1.8974">
        <ele>155.45</ele>
        <time>2022-01-04T09:08:47Z</time>
      </trkpt>
      <trkpt lat="48.68595" lon="1.89768">
        <ele>156.24</ele>
        <time>2022-01-04T09:09:00Z</time>
      </trkpt>
      <trkpt lat="48.68599" lon="1.89795">
        <ele>156.69</ele>
        <time>2022-01-04T09:09:16Z</time>
      </trkpt>
      <trkpt lat="48.68604" lon="1.89822">
        <ele>157.23</ele>
        <time>2022-01-04T09:09:30Z</time>
      </trkpt>
      <trkpt lat="48.68601" lon="1.89851">
        <ele>159.84</ele>
        <time>2022-01-04T09:09:44Z</time>
      </trkpt>
      <trkpt lat="48.68602" lon="1.8988">
        <ele>158.78</ele>
        <time>2022-01-04T09:09:54Z</time>
      </trkpt>
      <trkpt lat="48.68603" lon="1.89909">
        <ele>156.94</ele>
        <time>2022-01-04T09:10:05Z</time>
      </trkpt>
      <trkpt lat="48.68602" lon="1.89937">
        <ele>154.84</ele>
        <time>2022-01-04T09:10:18Z</time>
      </trkpt>
      <trkpt lat="48.68602" lon="1.89964">
        <ele>150.96</ele>
        <time>2022-01-04T09:10:29Z</time>
      </trkpt>
      <trkpt lat="48.68601" lon="1.89994">
        <ele>150.07</ele>
        <time>2022-01-04T09:10:42Z</time>
      </trkpt>
      <trkpt lat="48.68601" lon="1.90021">
        <ele>149.4</ele>
        <time>2022-01-04T09:10:53Z</time>
      </trkpt>
      <trkpt lat="48.68597" lon="1.90049">
        <ele>148</ele>
        <time>2022-01-04T09:11:06Z</time>
      </trkpt>
      <trkpt lat="48.68597" lon="1.90078">
        <ele>145.21</ele>
        <time>2022-01-04T09:11:19Z</time>
      </trkpt>
      <trkpt lat="48.68599" lon="1.90107">
        <ele>140.5</ele>
        <time>2022-01-04T09:11:31Z</time>
      </trkpt>
      <trkpt lat="48.68602" lon="1.90135">
        <ele>137.57</ele>
        <time>2022-01-04T09:11:47Z</time>
      </trkpt>
      <trkpt lat="48.68602" lon="1.90164">
        <ele>135.97</ele>
        <time>2022-01-04T09:11:58Z</time>
      </trkpt>
      <trkpt lat="48.68601" lon="1.90192">
        <ele>131.89</ele>
        <time>2022-01-04T09:12:09Z</time>
      </trkpt>
      <trkpt lat="48.686" lon="1.9022">
        <ele>128.19</ele>
        <time>2022-01-04T09:12:21Z</time>
      </trkpt>
      <trkpt lat="48.68602" lon="1.90247">
        <ele>126.88</ele>
        <time>2022-01-04T09:12:37Z</time>
      </trkpt>
      <trkpt lat="48.686" lon="1.90276">
        <ele>129.16</ele>
        <time>2022-01-04T09:12:50Z</time>
      </trkpt>
      <trkpt lat="48.68602" lon="1.90303">
        <ele>129.99</ele>
        <time>2022-01-04T09:13:02Z</time>
      </trkpt>
      <trkpt lat="48.68602" lon="1.90331">
        <ele>130.47</ele>
        <time>2022-01-04T09:13:16Z</time>
      </trkpt>
      <trkpt lat="48.68602" lon="1.9036">
        <ele>132.84</ele>
        <time>2022-01-04T09:13:31Z</time>
      </trkpt>
      <trkpt lat="48.68602" lon="1.90388">
        <ele>135.28</ele>
        <time>2022-01-04T09:13:44Z</time>
      </trkpt>
      <trkpt lat="48.68604" lon="1.90416">
        <ele>136.88</ele>
        <time>2022-01-04T09:13:58Z</time>
      </trkpt>
      <trkpt lat="48.68606" lon="1.90444">
        <ele>137.23</ele>
        <time>2022-01-04T09:14:16Z</time>
      </trkpt>
      <trkpt lat="48.686" lon="1.90472">
        <ele>140.5</ele>
        <time>2022-01-04T09:14:34Z</time>
      </trkpt>
      <trkpt lat="48.68599" lon="1.905">
        <ele>138.66</ele>
        <time>2022-01-04T09:15:09Z</time>
      </trkpt>
      <trkpt lat="48.68611" lon="1.9053">
        <ele>131.18</ele>
        <time>2022-01-04T09:15:44Z</time>
      </trkpt>
      <trkpt lat="48.68602" lon="1.90505">
        <ele>125.46</ele>
        <time>2022-01-04T09:17:13Z</time>
      </trkpt>
      <trkpt lat="48.68588" lon="1.90525">
        <ele>125.67</ele>
        <time>2022-01-04T09:20:39Z</time>
      </trkpt>
      <trkpt lat="48.68572" lon="1.90534">
        <ele>127.79</ele>
        <time>2022-01-04T09:20:58Z</time>
      </trkpt>
      <trkpt lat="48.68553" lon="1.90535">
        <ele>128.24</ele>
        <time>2022-01-04T09:21:13Z</time>
      </trkpt>
      <trkpt lat="48.68534" lon="1.90537">
        <ele>129.42</ele>
        <time>2022-01-04T09:21:24Z</time>
      </trkpt>
      <trkpt lat="48.68517" lon="1.90544">
        <ele>129.73</ele>
        <time>2022-01-04T09:21:50Z</time>
      </trkpt>
      <trkpt lat="48.68499" lon="1.9055">
        <ele>129.04</ele>
        <time>2022-01-04T09:22:03Z</time>
      </trkpt>
      <trkpt lat="48.6848" lon="1.90556">
        <ele>127.43</ele>
        <time>2022-01-04T09:22:14Z</time>
      </trkpt>
      <trkpt lat="48.68463" lon="1.90568">
        <ele>129.54</ele>
        <time>2022-01-04T09:22:26Z</time>
      </trkpt>
      <trkpt lat="48.68446" lon="1.90579">
        <ele>129.11</ele>
        <time>2022-01-04T09:22:36Z</time>
      </trkpt>
      <trkpt lat="48.6843" lon="1.90593">
        <ele>128.83</ele>
        <time>2022-01-04T09:22:53Z</time>
      </trkpt>
      <trkpt lat="48.68413" lon="1.90604">
        <ele>130.16</ele>
        <time>2022-01-04T09:23:09Z</time>
      </trkpt>
      <trkpt lat="48.68396" lon="1.90615">
        <ele>130.66</ele>
        <time>2022-01-04T09:23:23Z</time>
      </trkpt>
      <trkpt lat="48.68377" lon="1.90623">
        <ele>130.11</ele>
        <time>2022-01-04T09:23:35Z</time>
      </trkpt>
      <trkpt lat="48.6836" lon="1.90635">
        <ele>130.9</ele>
        <time>2022-01-04T09:23:53Z</time>
      </trkpt>
      <trkpt lat="48.68344" lon="1.90648">
        <ele>131.72</ele>
        <time>2022-01-04T09:24:03Z</time>
      </trkpt>
      <trkpt lat="48.68326" lon="1.90656">
        <ele>132.36</ele>
        <time>2022-01-04T09:24:15Z</time>
      </trkpt>
      <trkpt lat="48.68306" lon="1.90658">
        <ele>131.32</ele>
        <time>2022-01-04T09:24:21Z</time>
      </trkpt>
      <trkpt lat="48.68291" lon="1.90675">
        <ele>131.25</ele>
        <time>2022-01-04T09:24:36Z</time>
      </trkpt>
      <trkpt lat="48.68276" lon="1.90692">
        <ele>132.79</ele>
        <time>2022-01-04T09:24:47Z</time>
      </trkpt>
      <trkpt lat="48.68263" lon="1.90714">
        <ele>135.59</ele>
        <time>2022-01-04T09:25:03Z</time>
      </trkpt>
      <trkpt lat="48.68252" lon="1.90737">
        <ele>139.31</ele>
        <time>2022-01-04T09:25:20Z</time>
      </trkpt>
      <trkpt lat="48.68236" lon="1.90753">
        <ele>140.84</ele>
        <time>2022-01-04T09:25:32Z</time>
      </trkpt>
      <trkpt lat="48.6822" lon="1.90767">
        <ele>138.42</ele>
        <time>2022-01-04T09:25:39Z</time>
      </trkpt>
      <trkpt lat="48.68206" lon="1.90784">
        <ele>136.64</ele>
        <time>2022-01-04T09:25:53Z</time>
      </trkpt>
      <trkpt lat="48.68195" lon="1.90808">
        <ele>134.12</ele>
        <time>2022-01-04T09:26:11Z</time>
      </trkpt>
      <trkpt lat="48.68179" lon="1.90821">
        <ele>133.22</ele>
        <time>2022-01-04T09:26:26Z</time>
      </trkpt>
      <trkpt lat="48.68164" lon="1.90838">
        <ele>131.04</ele>
        <time>2022-01-04T09:26:38Z</time>
      </trkpt>
      <trkpt lat="48.68152" lon="1.9086">
        <ele>133.17</ele>
        <time>2022-01-04T09:26:56Z</time>
      </trkpt>
      <trkpt lat="48.68143" lon="1.90886">
        <ele>134.03</ele>
        <time>2022-01-04T09:27:10Z</time>
      </trkpt>
      <trkpt lat="48.68137" lon="1.90914">
        <ele>134.72</ele>
        <time>2022-01-04T09:27:23Z</time>
      </trkpt>
      <trkpt lat="48.68137" lon="1.90943">
        <ele>134.17</ele>
        <time>2022-01-04T09:27:33Z</time>
      </trkpt>
      <trkpt lat="48.68139" lon="1.90971">
        <ele>133.43</ele>
        <time>2022-01-04T09:27:48Z</time>
      </trkpt>
      <trkpt lat="48.68139" lon="1.91">
        <ele>131.75</ele>
        <time>2022-01-04T09:28:04Z</time>
      </trkpt>
      <trkpt lat="48.6814" lon="1.91029">
        <ele>131.33</ele>
        <time>2022-01-04T09:28:18Z</time>
      </trkpt>
      <trkpt lat="48.68135" lon="1.91057">
        <ele>131.23</ele>
        <time>2022-01-04T09:28:31Z</time>
      </trkpt>
      <trkpt lat="48.68139" lon="1.91086">
        <ele>131.03</ele>
        <time>2022-01-04T09:28:45Z</time>
      </trkpt>
      <trkpt lat="48.68144" lon="1.91113">
        <ele>129.74</ele>
        <time>2022-01-04T09:28:57Z</time>
      </trkpt>
      <trkpt lat="48.68149" lon="1.9114">
        <ele>128.56</ele>
        <time>2022-01-04T09:29:13Z</time>
      </trkpt>
      <trkpt lat="48.68155" lon="1.91166">
        <ele>129.58</ele>
        <time>2022-01-04T09:29:30Z</time>
      </trkpt>
      <trkpt lat="48.68166" lon="1.91188">
        <ele>130.79</ele>
        <time>2022-01-04T09:29:41Z</time>
      </trkpt>
      <trkpt lat="48.68174" lon="1.91213">
        <ele>129.04</ele>
        <time>2022-01-04T09:29:56Z</time>
      </trkpt>
      <trkpt lat="48.68177" lon="1.9124">
        <ele>125.04</ele>
        <time>2022-01-04T09:30:28Z</time>
      </trkpt>
      <trkpt lat="48.68192" lon="1.91257">
        <ele>127.88</ele>
        <time>2022-01-04T09:31:54Z</time>
      </trkpt>
      <trkpt lat="48.68193" lon="1.91284">
        <ele>130.06</ele>
        <time>2022-01-04T09:32:10Z</time>
      </trkpt>
      <trkpt lat="48.68206" lon="1.91316">
        <ele>130.08</ele>
        <time>2022-01-04T09:32:42Z</time>
      </trkpt>
      <trkpt lat="48.68212" lon="1.91342">
        <ele>121.19</ele>
        <time>2022-01-04T09:33:26Z</time>
      </trkpt>
      <trkpt lat="48.68222" lon="1.91365">
        <ele>123.35</ele>
        <time>2022-01-04T09:33:57Z</time>
      </trkpt>
      <trkpt lat="48.68237" lon="1.91381">
        <ele>127.98</ele>
        <time>2022-01-04T09:34:19Z</time>
      </trkpt>
      <trkpt lat="48.68248" lon="1.91403">
        <ele>132.19</ele>
        <time>2022-01-04T09:34:34Z</time>
      </trkpt>
      <trkpt lat="48.68253" lon="1.91432">
        <ele>136.75</ele>
        <time>2022-01-04T09:34:48Z</time>
      </trkpt>
      <trkpt lat="48.68257" lon="1.91459">
        <ele>138.02</ele>
        <time>2022-01-04T09:34:59Z</time>
      </trkpt>
      <trkpt lat="48.68263" lon="1.91488">
        <ele>139.79</ele>
        <time>2022-01-04T09:35:12Z</time>
      </trkpt>
      <trkpt lat="48.68271" lon="1.91513">
        <ele>140.75</ele>
        <time>2022-01-04T09:35:26Z</time>
      </trkpt>
      <trkpt lat="48.68266" lon="1.91542">
        <ele>141.83</ele>
        <time>2022-01-04T09:35:40Z</time>
      </trkpt>
      <trkpt lat="48.68263" lon="1.9157">
        <ele>140.91</ele>
        <time>2022-01-04T09:35:56Z</time>
      </trkpt>
      <trkpt lat="48.68264" lon="1.91598">
        <ele>141.62</ele>
        <time>2022-01-04T09:36:09Z</time>
      </trkpt>
      <trkpt lat="48.68259" lon="1.91625">
        <ele>142.82</ele>
        <time>2022-01-04T09:36:22Z</time>
      </trkpt>
      <trkpt lat="48.68255" lon="1.91653">
        <ele>143.2</ele>
        <time>2022-01-04T09:36:42Z</time>
      </trkpt>
      <trkpt lat="48.6824" lon="1.91669">
        <ele>137.44</ele>
        <time>2022-01-04T09:37:10Z</time>
      </trkpt>
      <trkpt lat="48.68224" lon="1.91684">
        <ele>134.13</ele>
        <time>2022-01-04T09:37:21Z</time>
      </trkpt>
      <trkpt lat="48.68229" lon="1.91711">
        <ele>132.94</ele>
        <time>2022-01-04T09:37:35Z</time>
      </trkpt>
      <trkpt lat="48.68246" lon="1.91699">
        <ele>131.86</ele>
        <time>2022-01-04T09:38:06Z</time>
      </trkpt>
      <trkpt lat="48.6826" lon="1.91683">
        <ele>133.57</ele>
        <time>2022-01-04T09:38:34Z</time>
      </trkpt>
      <trkpt lat="48.68279" lon="1.91684">
        <ele>134.79</ele>
        <time>2022-01-04T09:38:48Z</time>
      </trkpt>
      <trkpt lat="48.68298" lon="1.91688">
        <ele>135.49</ele>
        <time>2022-01-04T09:39:04Z</time>
      </trkpt>
      <trkpt lat="48.68316" lon="1.91698">
        <ele>135.19</ele>
        <time>2022-01-04T09:39:15Z</time>
      </trkpt>
      <trkpt lat="48.68335" lon="1.917">
        <ele>135.07</ele>
        <time>2022-01-04T09:39:28Z</time>
      </trkpt>
      <trkpt lat="48.68353" lon="1.91701">
        <ele>135.29</ele>
        <time>2022-01-04T09:39:44Z</time>
      </trkpt>
      <trkpt lat="48.68372" lon="1.917">
        <ele>137.25</ele>
        <time>2022-01-04T09:40:00Z</time>
      </trkpt>
      <trkpt lat="48.6839" lon="1.91699">
        <ele>138.79</ele>
        <time>2022-01-04T09:40:14Z</time>
      </trkpt>
      <trkpt lat="48.68409" lon="1.91702">
        <ele>139.72</ele>
        <time>2022-01-04T09:40:28Z</time>
      </trkpt>
      <trkpt lat="48.68427" lon="1.91709">
        <ele>138.45</ele>
        <time>2022-01-04T09:40:44Z</time>
      </trkpt>
      <trkpt lat="48.68444" lon="1.91719">
        <ele>138.13</ele>
        <time>2022-01-04T09:40:59Z</time>
      </trkpt>
      <trkpt lat="48.68464" lon="1.91725">
        <ele>139.27</ele>
        <time>2022-01-04T09:41:15Z</time>
      </trkpt>
      <trkpt lat="48.68482" lon="1.9173">
        <ele>138.89</ele>
        <time>2022-01-04T09:41:24Z</time>
      </trkpt>
      <trkpt lat="48.68502" lon="1.91729">
        <ele>129.85</ele>
        <time>2022-01-04T09:42:43Z</time>
      </trkpt>
      <trkpt lat="48.68516" lon="1.91746">
        <ele>130.09</ele>
        <time>2022-01-04T09:42:57Z</time>
      </trkpt>
      <trkpt lat="48.68523" lon="1.91773">
        <ele>132.19</ele>
        <time>2022-01-04T09:43:18Z</time>
      </trkpt>
      <trkpt lat="48.6852" lon="1.918">
        <ele>132.6</ele>
        <time>2022-01-04T09:43:37Z</time>
      </trkpt>
      <trkpt lat="48.68517" lon="1.91827">
        <ele>132.06</ele>
        <time>2022-01-04T09:43:55Z</time>
      </trkpt>
      <trkpt lat="48.68514" lon="1.91854">
        <ele>130.46</ele>
        <time>2022-01-04T09:44:16Z</time>
      </trkpt>
      <trkpt lat="48.6852" lon="1.91881">
        <ele>129.5</ele>
        <time>2022-01-04T09:44:35Z</time>
      </trkpt>
      <trkpt lat="48.68526" lon="1.91907">
        <ele>128.3</ele>
        <time>2022-01-04T09:44:51Z</time>
      </trkpt>
      <trkpt lat="48.68538" lon="1.91941">
        <ele>125.38</ele>
        <time>2022-01-04T09:45:19Z</time>
      </trkpt>
      <trkpt lat="48.68553" lon="1.91961">
        <ele>121.57</ele>
        <time>2022-01-04T09:45:37Z</time>
      </trkpt>
      <trkpt lat="48.68569" lon="1.91982">
        <ele>118.14</ele>
        <time>2022-01-04T09:45:50Z</time>
      </trkpt>
      <trkpt lat="48.68582" lon="1.92002">
        <ele>115.66</ele>
        <time>2022-01-04T09:46:01Z</time>
      </trkpt>
      <trkpt lat="48.68599" lon="1.92017">
        <ele>115.17</ele>
        <time>2022-01-04T09:46:12Z</time>
      </trkpt>
      <trkpt lat="48.68617" lon="1.92027">
        <ele>113.65</ele>
        <time>2022-01-04T09:46:24Z</time>
      </trkpt>
      <trkpt lat="48.68635" lon="1.92022">
        <ele>109.46</ele>
        <time>2022-01-04T09:46:39Z</time>
      </trkpt>
      <trkpt lat="48.68642" lon="1.91997">
        <ele>101.8</ele>
        <time>2022-01-04T09:48:08Z</time>
      </trkpt>
      <trkpt lat="48.68638" lon="1.91969">
        <ele>105.9</ele>
        <time>2022-01-04T09:48:25Z</time>
      </trkpt>
      <trkpt lat="48.68642" lon="1.91942">
        <ele>108.69</ele>
        <time>2022-01-04T09:48:43Z</time>
      </trkpt>
      <trkpt lat="48.68647" lon="1.91914">
        <ele>109.98</ele>
        <time>2022-01-04T09:48:56Z</time>
      </trkpt>
      <trkpt lat="48.68658" lon="1.91893">
        <ele>113.72</ele>
        <time>2022-01-04T09:49:14Z</time>
      </trkpt>
      <trkpt lat="48.68673" lon="1.91877">
        <ele>115.87</ele>
        <time>2022-01-04T09:49:29Z</time>
      </trkpt>
      <trkpt lat="48.68676" lon="1.91849">
        <ele>116.46</ele>
        <time>2022-01-04T09:49:43Z</time>
      </trkpt>
      <trkpt lat="48.68694" lon="1.9183">
        <ele>107.4</ele>
        <time>2022-01-04T09:51:39Z</time>
      </trkpt>
      <trkpt lat="48.68712" lon="1.91827">
        <ele>108.72</ele>
        <time>2022-01-04T09:51:58Z</time>
      </trkpt>
      <trkpt lat="48.6873" lon="1.91824">
        <ele>108.47</ele>
        <time>2022-01-04T09:52:13Z</time>
      </trkpt>
      <trkpt lat="48.6875" lon="1.91836">
        <ele>105.16</ele>
        <time>2022-01-04T09:52:30Z</time>
      </trkpt>
      <trkpt lat="48.68767" lon="1.91847">
        <ele>102.22</ele>
        <time>2022-01-04T09:52:44Z</time>
      </trkpt>
      <trkpt lat="48.68775" lon="1.91823">
        <ele>101.07</ele>
        <time>2022-01-04T09:52:58Z</time>
      </trkpt>
      <trkpt lat="48.68766" lon="1.91799">
        <ele>100.74</ele>
        <time>2022-01-04T09:53:20Z</time>
      </trkpt>
      <trkpt lat="48.68762" lon="1.91771">
        <ele>101.03</ele>
        <time>2022-01-04T09:53:35Z</time>
      </trkpt>
      <trkpt lat="48.68759" lon="1.91742">
        <ele>102.56</ele>
        <time>2022-01-04T09:53:50Z</time>
      </trkpt>
      <trkpt lat="48.68756" lon="1.91714">
        <ele>105.27</ele>
        <time>2022-01-04T09:54:05Z</time>
      </trkpt>
      <trkpt lat="48.68754" lon="1.91687">
        <ele>106.66</ele>
        <time>2022-01-04T09:54:15Z</time>
      </trkpt>
      <trkpt lat="48.68749" lon="1.9166">
        <ele>107.27</ele>
        <time>2022-01-04T09:54:29Z</time>
      </trkpt>
      <trkpt lat="48.68737" lon="1.91638">
        <ele>108.94</ele>
        <time>2022-01-04T09:54:42Z</time>
      </trkpt>
      <trkpt lat="48.68723" lon="1.91621">
        <ele>110.43</ele>
        <time>2022-01-04T09:54:56Z</time>
      </trkpt>
      <trkpt lat="48.68705" lon="1.91611">
        <ele>111.3</ele>
        <time>2022-01-04T09:55:09Z</time>
      </trkpt>
      <trkpt lat="48.68697" lon="1.91586">
        <ele>111.33</ele>
        <time>2022-01-04T09:55:29Z</time>
      </trkpt>
      <trkpt lat="48.68697" lon="1.91558">
        <ele>109.71</ele>
        <time>2022-01-04T09:55:50Z</time>
      </trkpt>
      <trkpt lat="48.68692" lon="1.91531">
        <ele>108.77</ele>
        <time>2022-01-04T09:56:05Z</time>
      </trkpt>
      <trkpt lat="48.68687" lon="1.91504">
        <ele>108.49</ele>
        <time>2022-01-04T09:56:22Z</time>
      </trkpt>
      <trkpt lat="48.68681" lon="1.91474">
        <ele>106.89</ele>
        <time>2022-01-04T09:56:33Z</time>
      </trkpt>
      <trkpt lat="48.68675" lon="1.91448">
        <ele>103.65</ele>
        <time>2022-01-04T09:56:46Z</time>
      </trkpt>
      <trkpt lat="48.68669" lon="1.91422">
        <ele>99.47</ele>
        <time>2022-01-04T09:57:06Z</time>
      </trkpt>
      <trkpt lat="48.6867" lon="1.91394">
        <ele>86.03</ele>
        <time>2022-01-04T10:01:09Z</time>
      </trkpt>
      <trkpt lat="48.68679" lon="1.91371">
        <ele>86.47</ele>
        <time>2022-01-04T10:01:27Z</time>
      </trkpt>
      <trkpt lat="48.68694" lon="1.91355">
        <ele>87.09</ele>
        <time>2022-01-04T10:01:42Z</time>
      </trkpt>
      <trkpt lat="48.68692" lon="1.91326">
        <ele>89.73</ele>
        <time>2022-01-04T10:01:56Z</time>
      </trkpt>
      <trkpt lat="48.68689" lon="1.91298">
        <ele>92.42</ele>
        <time>2022-01-04T10:02:10Z</time>
      </trkpt>
      <trkpt lat="48.68682" lon="1.91272">
        <ele>93.49</ele>
        <time>2022-01-04T10:02:24Z</time>
      </trkpt>
      <trkpt lat="48.68673" lon="1.91248">
        <ele>94.58</ele>
        <time>2022-01-04T10:02:38Z</time>
      </trkpt>
      <trkpt lat="48.68668" lon="1.9122">
        <ele>93.91</ele>
        <time>2022-01-04T10:02:59Z</time>
      </trkpt>
      <trkpt lat="48.68664" lon="1.91193">
        <ele>94.16</ele>
        <time>2022-01-04T10:03:11Z</time>
      </trkpt>
      <trkpt lat="48.68659" lon="1.91166">
        <ele>93.98</ele>
        <time>2022-01-04T10:03:26Z</time>
      </trkpt>
      <trkpt lat="48.68663" lon="1.91139">
        <ele>92.23</ele>
        <time>2022-01-04T10:05:08Z</time>
      </trkpt>
      <trkpt lat="48.6865" lon="1.91158">
        <ele>88.98</ele>
        <time>2022-01-04T10:07:05Z</time>
      </trkpt>
      <trkpt lat="48.68634" lon="1.91144">
        <ele>84.37</ele>
        <time>2022-01-04T10:07:40Z</time>
      </trkpt>
      <trkpt lat="48.68647" lon="1.91125">
        <ele>86.21</ele>
        <time>2022-01-04T10:08:28Z</time>
      </trkpt>
      <trkpt lat="48.68644" lon="1.91098">
        <ele>85.55</ele>
        <time>2022-01-04T10:08:53Z</time>
      </trkpt>
      <trkpt lat="48.68661" lon="1.91074">
        <ele>86.33</ele>
        <time>2022-01-04T10:09:24Z</time>
      </trkpt>
      <trkpt lat="48.68652" lon="1.9105">
        <ele>91.84</ele>
        <time>2022-01-04T10:10:10Z</time>
      </trkpt>
      <trkpt lat="48.68636" lon="1.91036">
        <ele>95.58</ele>
        <time>2022-01-04T10:10:28Z</time>
      </trkpt>
      <trkpt lat="48.6862" lon="1.91023">
        <ele>99.72</ele>
        <time>2022-01-04T10:10:46Z</time>
      </trkpt>
      <trkpt lat="48.68606" lon="1.91005">
        <ele>101.75</ele>
        <time>2022-01-04T10:11:03Z</time>
      </trkpt>
      <trkpt lat="48.68597" lon="1.90982">
        <ele>104.28</ele>
        <time>2022-01-04T10:11:19Z</time>
      </trkpt>
      <trkpt lat="48.68582" lon="1.90965">
        <ele>106.75</ele>
        <time>2022-01-04T10:11:34Z</time>
      </trkpt>
      <trkpt lat="48.68575" lon="1.90939">
        <ele>108.5</ele>
        <time>2022-01-04T10:11:47Z</time>
      </trkpt>
      <trkpt lat="48.6857" lon="1.90913">
        <ele>109.51</ele>
        <time>2022-01-04T10:12:09Z</time>
      </trkpt>
      <trkpt lat="48.68569" lon="1.90884">
        <ele>112.6</ele>
        <time>2022-01-04T10:12:28Z</time>
      </trkpt>
      <trkpt lat="48.68583" lon="1.90864">
        <ele>117.17</ele>
        <time>2022-01-04T10:12:47Z</time>
      </trkpt>
      <trkpt lat="48.6859" lon="1.90838">
        <ele>120.05</ele>
        <time>2022-01-04T10:13:05Z</time>
      </trkpt>
      <trkpt lat="48.68597" lon="1.90813">
        <ele>120.3</ele>
        <time>2022-01-04T10:13:16Z</time>
      </trkpt>
      <trkpt lat="48.68599" lon="1.90784">
        <ele>122.13</ele>
        <time>2022-01-04T10:13:37Z</time>
      </trkpt>
      <trkpt lat="48.6859" lon="1.90759">
        <ele>122.41</ele>
        <time>2022-01-04T10:14:03Z</time>
      </trkpt>
      <trkpt lat="48.686" lon="1.90735">
        <ele>123.21</ele>
        <time>2022-01-04T10:15:38Z</time>
      </trkpt>
      <trkpt lat="48.68599" lon="1.90706">
        <ele>127.79</ele>
        <time>2022-01-04T10:15:58Z</time>
      </trkpt>
      <trkpt lat="48.68601" lon="1.90679">
        <ele>130.58</ele>
        <time>2022-01-04T10:16:12Z</time>
      </trkpt>
      <trkpt lat="48.68602" lon="1.9065">
        <ele>134.45</ele>
        <time>2022-01-04T10:16:28Z</time>
      </trkpt>
      <trkpt lat="48.68604" lon="1.9062">
        <ele>136.02</ele>
        <time>2022-01-04T10:16:39Z</time>
      </trkpt>
      <trkpt lat="48.68605" lon="1.90593">
        <ele>137.05</ele>
        <time>2022-01-04T10:16:52Z</time>
      </trkpt>
      <trkpt lat="48.68602" lon="1.90562">
        <ele>137.33</ele>
        <time>2022-01-04T10:17:09Z</time>
      </trkpt>
      <trkpt lat="48.68605" lon="1.90527">
        <ele>137.11</ele>
        <time>2022-01-04T10:17:53Z</time>
      </trkpt>
      <trkpt lat="48.68622" lon="1.90515">
        <ele>136.66</ele>
        <time>2022-01-04T10:18:10Z</time>
      </trkpt>
      <trkpt lat="48.6864" lon="1.90506">
        <ele>136.62</ele>
        <time>2022-01-04T10:18:24Z</time>
      </trkpt>
      <trkpt lat="48.68658" lon="1.90497">
        <ele>137.19</ele>
        <time>2022-01-04T10:18:37Z</time>
      </trkpt>
      <trkpt lat="48.6867" lon="1.90476">
        <ele>138.62</ele>
        <time>2022-01-04T10:18:46Z</time>
      </trkpt>
      <trkpt lat="48.68681" lon="1.90453">
        <ele>138.99</ele>
        <time>2022-01-04T10:18:59Z</time>
      </trkpt>
      <trkpt lat="48.68699" lon="1.90441">
        <ele>140.12</ele>
        <time>2022-01-04T10:19:15Z</time>
      </trkpt>
      <trkpt lat="48.68717" lon="1.90433">
        <ele>142.1</ele>
        <time>2022-01-04T10:19:34Z</time>
      </trkpt>
      <trkpt lat="48.6873" lon="1.90413">
        <ele>143.18</ele>
        <time>2022-01-04T10:19:49Z</time>
      </trkpt>
      <trkpt lat="48.68742" lon="1.90393">
        <ele>144.39</ele>
        <time>2022-01-04T10:20:05Z</time>
      </trkpt>
      <trkpt lat="48.68759" lon="1.90383">
        <ele>145.1</ele>
        <time>2022-01-04T10:20:19Z</time>
      </trkpt>
      <trkpt lat="48.68771" lon="1.90361">
        <ele>146.55</ele>
        <time>2022-01-04T10:20:35Z</time>
      </trkpt>
      <trkpt lat="48.68785" lon="1.90341">
        <ele>148.06</ele>
        <time>2022-01-04T10:20:47Z</time>
      </trkpt>
      <trkpt lat="48.68802" lon="1.90329">
        <ele>144.53</ele>
        <time>2022-01-04T10:20:58Z</time>
      </trkpt>
      <trkpt lat="48.68818" lon="1.90312">
        <ele>145.47</ele>
        <time>2022-01-04T10:21:12Z</time>
      </trkpt>
      <trkpt lat="48.68832" lon="1.90292">
        <ele>145.38</ele>
        <time>2022-01-04T10:21:26Z</time>
      </trkpt>
      <trkpt lat="48.68844" lon="1.90271">
        <ele>147.07</ele>
        <time>2022-01-04T10:21:40Z</time>
      </trkpt>
      <trkpt lat="48.68861" lon="1.90256">
        <ele>146.38</ele>
        <time>2022-01-04T10:21:53Z</time>
      </trkpt>
      <trkpt lat="48.68877" lon="1.90242">
        <ele>143.88</ele>
        <time>2022-01-04T10:22:14Z</time>
      </trkpt>
      <trkpt lat="48.68886" lon="1.90219">
        <ele>142.59</ele>
        <time>2022-01-04T10:22:35Z</time>
      </trkpt>
      <trkpt lat="48.68894" lon="1.90244">
        <ele>140.11</ele>
        <time>2022-01-04T10:23:28Z</time>
      </trkpt>
      <trkpt lat="48.68894" lon="1.90272">
        <ele>137.74</ele>
        <time>2022-01-04T10:23:54Z</time>
      </trkpt>
      <trkpt lat="48.68907" lon="1.90292">
        <ele>134.14</ele>
        <time>2022-01-04T10:24:23Z</time>
      </trkpt>
      <trkpt lat="48.68896" lon="1.90313">
        <ele>128.14</ele>
        <time>2022-01-04T10:24:57Z</time>
      </trkpt>
      <trkpt lat="48.68899" lon="1.90342">
        <ele>124.73</ele>
        <time>2022-01-04T10:25:18Z</time>
      </trkpt>
      <trkpt lat="48.68893" lon="1.90369">
        <ele>125.8</ele>
        <time>2022-01-04T10:25:43Z</time>
      </trkpt>
      <trkpt lat="48.68899" lon="1.90396">
        <ele>127.1</ele>
        <time>2022-01-04T10:25:55Z</time>
      </trkpt>
      <trkpt lat="48.68897" lon="1.90424">
        <ele>129.09</ele>
        <time>2022-01-04T10:26:13Z</time>
      </trkpt>
      <trkpt lat="48.68895" lon="1.90452">
        <ele>129.71</ele>
        <time>2022-01-04T10:26:26Z</time>
      </trkpt>
      <trkpt lat="48.68892" lon="1.9048">
        <ele>128.67</ele>
        <time>2022-01-04T10:26:41Z</time>
      </trkpt>
      <trkpt lat="48.68886" lon="1.90507">
        <ele>127.37</ele>
        <time>2022-01-04T10:27:00Z</time>
      </trkpt>
      <trkpt lat="48.68889" lon="1.90534">
        <ele>126.84</ele>
        <time>2022-01-04T10:27:12Z</time>
      </trkpt>
      <trkpt lat="48.68889" lon="1.90562">
        <ele>127.42</ele>
        <time>2022-01-04T10:27:28Z</time>
      </trkpt>
      <trkpt lat="48.68888" lon="1.9059">
        <ele>125.88</ele>
        <time>2022-01-04T10:27:44Z</time>
      </trkpt>
      <trkpt lat="48.6889" lon="1.90618">
        <ele>123.71</ele>
        <time>2022-01-04T10:27:58Z</time>
      </trkpt>
      <trkpt lat="48.68895" lon="1.90644">
        <ele>122.96</ele>
        <time>2022-01-04T10:28:08Z</time>
      </trkpt>
      <trkpt lat="48.68889" lon="1.90671">
        <ele>118.79</ele>
        <time>2022-01-04T10:28:26Z</time>
      </trkpt>
      <trkpt lat="48.6889" lon="1.90699">
        <ele>119.2</ele>
        <time>2022-01-04T10:28:45Z</time>
      </trkpt>
      <trkpt lat="48.68898" lon="1.90723">
        <ele>117.41</ele>
        <time>2022-01-04T10:29:03Z</time>
      </trkpt>
      <trkpt lat="48.68895" lon="1.9075">
        <ele>114.24</ele>
        <time>2022-01-04T10:29:17Z</time>
      </trkpt>
      <trkpt lat="48.68916" lon="1.90761">
        <ele>101.39</ele>
        <time>2022-01-04T10:31:46Z</time>
      </trkpt>
      <trkpt lat="48.68935" lon="1.90762">
        <ele>102.26</ele>
        <time>2022-01-04T10:32:06Z</time>
      </trkpt>
      <trkpt lat="48.68954" lon="1.90757">
        <ele>106.31</ele>
        <time>2022-01-04T10:32:21Z</time>
      </trkpt>
      <trkpt lat="48.68972" lon="1.90762">
        <ele>110.67</ele>
        <time>2022-01-04T10:32:41Z</time>
      </trkpt>
      <trkpt lat="48.68991" lon="1.90767">
        <ele>113.18</ele>
        <time>2022-01-04T10:32:52Z</time>
      </trkpt>
      <trkpt lat="48.69006" lon="1.90782">
        <ele>117.21</ele>
        <time>2022-01-04T10:33:13Z</time>
      </trkpt>
      <trkpt lat="48.69022" lon="1.90796">
        <ele>119.43</ele>
        <time>2022-01-04T10:33:24Z</time>
      </trkpt>
      <trkpt lat="48.69035" lon="1.90816">
        <ele>121.15</ele>
        <time>2022-01-04T10:33:37Z</time>
      </trkpt>
      <trkpt lat="48.69049" lon="1.90834">
        <ele>120.1</ele>
        <time>2022-01-04T10:33:46Z</time>
      </trkpt>
      <trkpt lat="48.69065" lon="1.90851">
        <ele>120.05</ele>
        <time>2022-01-04T10:33:59Z</time>
      </trkpt>
      <trkpt lat="48.69079" lon="1.90869">
        <ele>120.51</ele>
        <time>2022-01-04T10:34:11Z</time>
      </trkpt>
      <trkpt lat="48.69095" lon="1.90881">
        <ele>122.26</ele>
        <time>2022-01-04T10:34:25Z</time>
      </trkpt>
      <trkpt lat="48.69114" lon="1.90878">
        <ele>122.88</ele>
        <time>2022-01-04T10:34:38Z</time>
      </trkpt>
      <trkpt lat="48.69132" lon="1.90872">
        <ele>124.88</ele>
        <time>2022-01-04T10:34:56Z</time>
      </trkpt>
      <trkpt lat="48.69153" lon="1.90854">
        <ele>125.28</ele>
        <time>2022-01-04T10:35:24Z</time>
      </trkpt>
      <trkpt lat="48.69161" lon="1.9088">
        <ele>116.77</ele>
        <time>2022-01-04T10:36:19Z</time>
      </trkpt>
      <trkpt lat="48.6916" lon="1.90908">
        <ele>113.85</ele>
        <time>2022-01-04T10:36:33Z</time>
      </trkpt>
      <trkpt lat="48.69163" lon="1.90937">
        <ele>110.78</ele>
        <time>2022-01-04T10:36:51Z</time>
      </trkpt>
      <trkpt lat="48.69175" lon="1.9096">
        <ele>110.89</ele>
        <time>2022-01-04T10:37:00Z</time>
      </trkpt>
      <trkpt lat="48.6919" lon="1.90973">
        <ele>111.02</ele>
        <time>2022-01-04T10:37:11Z</time>
      </trkpt>
      <trkpt lat="48.69206" lon="1.90958">
        <ele>109.05</ele>
        <time>2022-01-04T10:37:30Z</time>
      </trkpt>
      <trkpt lat="48.69218" lon="1.90935">
        <ele>105.66</ele>
        <time>2022-01-04T10:37:50Z</time>
      </trkpt>
      <trkpt lat="48.6923" lon="1.90913">
        <ele>105.69</ele>
        <time>2022-01-04T10:38:11Z</time>
      </trkpt>
      <trkpt lat="48.69241" lon="1.9089">
        <ele>107.42</ele>
        <time>2022-01-04T10:38:25Z</time>
      </trkpt>
      <trkpt lat="48.69254" lon="1.90871">
        <ele>105.75</ele>
        <time>2022-01-04T10:38:38Z</time>
      </trkpt>
      <trkpt lat="48.69267" lon="1.9085">
        <ele>105.53</ele>
        <time>2022-01-04T10:38:50Z</time>
      </trkpt>
      <trkpt lat="48.69277" lon="1.90826">
        <ele>105.83</ele>
        <time>2022-01-04T10:39:02Z</time>
      </trkpt>
      <trkpt lat="48.69288" lon="1.90802">
        <ele>102.47</ele>
        <time>2022-01-04T10:40:38Z</time>
      </trkpt>
    </trkseg>
  </trk>
</gpx>